createdAt,value
2018-05-21T00:01:30.207Z,2.43
2018-05-21T00:03:57.795Z,2.23
2018-05-21T00:06:25.738Z,3.00
2018-05-21T00:08:53.285Z,2.67
2018-05-21T00:11:20.821Z,3.00
2018-05-21T00:13:48.403Z,2.70
2018-05-21T00:16:16.909Z,2.60
2018-05-21T00:18:44.517Z,3.13
2018-05-21T00:21:12.102Z,3.20
2018-05-21T00:23:39.654Z,2.67
2018-05-21T00:26:07.296Z,2.93
2018-05-21T00:28:34.950Z,2.95
2018-05-21T00:31:03.344Z,2.57
2018-05-21T00:33:30.900Z,2.80
2018-05-21T00:35:58.458Z,3.00
2018-05-21T00:38:26.001Z,2.10
2018-05-21T00:40:53.660Z,2.90
2018-05-21T00:43:21.244Z,2.57
2018-05-21T00:45:48.901Z,2.75
2018-05-21T00:48:16.736Z,2.80
2018-05-21T00:50:44.660Z,2.70
2018-05-21T00:53:12.293Z,2.70
2018-05-21T00:55:39.879Z,2.67
2018-05-21T00:58:07.443Z,2.70
2018-05-21T01:00:35.465Z,2.93
2018-05-21T01:03:03.099Z,2.33
2018-05-21T01:05:31.056Z,2.60
2018-05-21T01:07:58.651Z,2.53
2018-05-21T01:10:26.328Z,2.60
2018-05-21T01:12:53.950Z,3.00
2018-05-21T01:15:21.580Z,2.50
2018-05-21T01:17:49.159Z,3.57
2018-05-21T01:20:16.746Z,2.90
2018-05-21T01:22:44.300Z,2.50
2018-05-21T01:25:12.268Z,2.92
2018-05-21T01:27:40.793Z,2.40
2018-05-21T01:30:08.409Z,2.60
2018-05-21T01:32:35.947Z,3.50
2018-05-21T01:35:03.544Z,3.20
2018-05-21T01:37:31.534Z,3.17
2018-05-21T01:39:59.179Z,2.97
2018-05-21T01:42:27.494Z,3.10
2018-05-21T01:45:01.369Z,3.07
2018-05-21T01:47:28.941Z,3.20
2018-05-21T01:49:56.496Z,3.20
2018-05-21T01:52:24.112Z,3.00
2018-05-21T01:54:51.757Z,3.22
2018-05-21T01:57:19.379Z,3.47
2018-05-21T01:59:47.004Z,3.30
2018-05-21T02:02:14.565Z,3.40
2018-05-21T02:04:42.992Z,3.30
2018-05-21T02:07:10.539Z,3.75
2018-05-21T02:09:39.467Z,3.53
2018-05-21T02:12:07.006Z,3.70
2018-05-21T02:14:34.588Z,3.83
2018-05-21T02:17:03.054Z,3.63
2018-05-21T02:19:30.653Z,3.40
2018-05-21T02:21:58.179Z,3.30
2018-05-21T02:24:26.646Z,3.40
2018-05-21T02:26:54.227Z,3.83
2018-05-21T02:29:21.761Z,4.10
2018-05-21T02:31:49.981Z,3.40
2018-05-21T02:34:17.523Z,4.20
2018-05-21T02:36:45.181Z,3.50
2018-05-21T02:39:12.710Z,3.90
2018-05-21T02:41:41.128Z,4.30
2018-05-21T02:44:08.841Z,3.90
2018-05-21T02:46:37.125Z,3.43
2018-05-21T02:49:04.707Z,3.53
2018-05-21T02:51:32.249Z,3.50
2018-05-21T02:53:59.934Z,4.57
2018-05-21T02:56:27.504Z,3.40
2018-05-21T02:58:55.086Z,4.00
2018-05-21T03:01:22.647Z,4.30
2018-05-21T03:03:50.205Z,4.50
2018-05-21T03:06:17.778Z,4.80
2018-05-21T03:08:45.962Z,4.83
2018-05-21T03:11:13.900Z,4.80
2018-05-21T03:13:41.457Z,3.83
2018-05-21T03:16:09.041Z,4.60
2018-05-21T03:18:36.982Z,4.00
2018-05-21T03:21:04.668Z,4.70
2018-05-21T03:23:32.604Z,4.87
2018-05-21T03:26:00.167Z,3.78
2018-05-21T03:28:27.719Z,3.50
2018-05-21T03:30:55.311Z,3.77
2018-05-21T03:33:22.853Z,3.53
2018-05-21T03:35:50.420Z,3.70
2018-05-21T03:38:17.961Z,3.90
2018-05-21T03:40:45.491Z,3.50
2018-05-21T03:43:13.087Z,3.60
2018-05-21T03:45:40.620Z,3.80
2018-05-21T03:48:08.187Z,4.07
2018-05-21T03:50:35.753Z,3.28
2018-05-21T03:53:03.308Z,4.30
2018-05-21T03:55:30.893Z,4.07
2018-05-21T03:57:58.437Z,4.60
2018-05-21T04:00:38.616Z,4.70
2018-05-21T04:03:17.956Z,3.92
2018-05-21T04:05:45.521Z,4.00
2018-05-21T04:08:13.452Z,4.68
2018-05-21T04:10:41.034Z,4.20
2018-05-21T04:13:08.588Z,3.67
2018-05-21T04:15:36.117Z,4.60
2018-05-21T04:18:03.727Z,4.30
2018-05-21T04:20:31.267Z,4.40
2018-05-21T04:22:58.820Z,4.30
2018-05-21T04:25:26.401Z,4.30
2018-05-21T04:27:53.972Z,4.70
2018-05-21T04:30:21.908Z,4.80
2018-05-21T04:32:49.465Z,4.63
2018-05-21T04:35:17.023Z,4.97
2018-05-21T04:37:44.585Z,5.07
2018-05-21T04:40:12.133Z,5.17
2018-05-21T04:42:39.677Z,4.97
2018-05-21T04:45:07.253Z,4.95
2018-05-21T04:47:34.868Z,5.43
2018-05-21T04:50:02.365Z,4.23
2018-05-21T04:52:29.941Z,4.45
2018-05-21T04:54:57.816Z,5.00
2018-05-21T04:57:25.364Z,5.77
2018-05-21T04:59:52.918Z,5.85
2018-05-21T05:02:20.536Z,4.90
2018-05-21T05:04:48.507Z,5.13
2018-05-21T05:07:16.445Z,5.40
2018-05-21T05:09:44.657Z,4.93
2018-05-21T05:12:12.208Z,5.63
2018-05-21T05:14:40.173Z,5.10
2018-05-21T05:17:07.749Z,6.00
2018-05-21T05:19:35.323Z,5.90
2018-05-21T05:22:02.912Z,5.40
2018-05-21T05:24:30.476Z,4.90
2018-05-21T05:26:58.053Z,5.00
2018-05-21T05:29:25.638Z,5.40
2018-05-21T05:31:53.148Z,5.47
2018-05-21T05:34:20.714Z,5.13
2018-05-21T05:36:48.284Z,5.70
2018-05-21T05:39:15.836Z,5.72
2018-05-21T05:41:43.820Z,5.07
2018-05-21T05:44:11.394Z,5.30
2018-05-21T05:46:39.391Z,5.20
2018-05-21T05:49:06.956Z,5.73
2018-05-21T05:51:34.491Z,5.83
2018-05-21T05:54:02.449Z,5.90
2018-05-21T05:56:30.399Z,6.17
2018-05-21T05:58:57.975Z,6.43
2018-05-21T06:01:25.952Z,6.50
2018-05-21T06:03:53.921Z,6.47
2018-05-21T06:06:22.581Z,5.57
2018-05-21T06:08:51.179Z,5.60
2018-05-21T06:11:19.163Z,6.43
2018-05-21T06:13:47.186Z,6.72
2018-05-21T06:16:15.100Z,5.93
2018-05-21T06:18:43.070Z,6.85
2018-05-21T06:21:11.016Z,6.73
2018-05-21T06:23:39.491Z,6.70
2018-05-21T06:26:07.011Z,6.90
2018-05-21T06:28:34.614Z,7.50
2018-05-21T06:31:02.199Z,7.23
2018-05-21T06:33:30.136Z,7.20
2018-05-21T06:35:57.709Z,6.27
2018-05-21T06:38:25.267Z,7.37
2018-05-21T06:40:52.855Z,7.00
2018-05-21T06:43:20.400Z,7.10
2018-05-21T06:45:51.393Z,6.30
2018-05-21T06:48:19.013Z,7.00
2018-05-21T06:50:47.448Z,7.47
2018-05-21T06:53:15.120Z,7.40
2018-05-21T06:55:42.831Z,7.40
2018-05-21T06:58:10.492Z,7.90
2018-05-21T07:00:39.845Z,6.83
2018-05-21T07:03:07.415Z,7.47
2018-05-21T07:05:35.039Z,8.13
2018-05-21T07:08:02.838Z,7.35
2018-05-21T07:10:30.331Z,6.87
2018-05-21T07:12:57.940Z,7.47
2018-05-21T07:15:25.505Z,7.53
2018-05-21T07:17:53.129Z,7.10
2018-05-21T07:20:20.703Z,7.97
2018-05-21T07:22:48.301Z,6.90
2018-05-21T07:25:15.887Z,7.40
2018-05-21T07:27:43.486Z,6.63
2018-05-21T07:30:11.097Z,6.53
2018-05-21T07:32:39.051Z,5.63
2018-05-21T07:35:06.628Z,6.80
2018-05-21T07:37:34.615Z,6.53
2018-05-21T07:40:02.625Z,5.73
2018-05-21T07:42:30.200Z,6.33
2018-05-21T07:44:58.361Z,6.55
2018-05-21T07:47:26.875Z,6.70
2018-05-21T07:49:54.611Z,6.12
2018-05-21T07:52:22.196Z,7.00
2018-05-21T07:54:50.321Z,6.23
2018-05-21T07:57:17.958Z,6.65
2018-05-21T07:59:45.680Z,6.23
2018-05-21T08:02:13.239Z,6.70
2018-05-21T08:04:40.833Z,6.10
2018-05-21T08:07:11.422Z,6.20
2018-05-21T08:09:38.982Z,5.77
2018-05-21T08:12:06.551Z,5.95
2018-05-21T08:14:34.463Z,6.20
2018-05-21T08:17:02.331Z,5.93
2018-05-21T08:19:29.992Z,5.60
2018-05-21T08:21:58.322Z,5.55
2018-05-21T08:24:25.881Z,6.50
2018-05-21T08:26:53.466Z,6.17
2018-05-21T08:29:21.018Z,6.17
2018-05-21T08:31:48.948Z,6.70
2018-05-21T08:34:16.707Z,5.70
2018-05-21T08:36:44.465Z,5.93
2018-05-21T08:39:12.005Z,6.60
2018-05-21T08:41:40.272Z,6.50
2018-05-21T08:44:07.856Z,6.28
2018-05-21T08:46:35.943Z,5.57
2018-05-21T08:49:03.499Z,6.60
2018-05-21T08:51:31.024Z,5.90
2018-05-21T08:53:58.654Z,5.90
2018-05-21T08:56:27.004Z,5.60
2018-05-21T08:58:54.945Z,6.00
2018-05-21T09:01:22.516Z,6.20
2018-05-21T09:03:50.228Z,5.63
2018-05-21T09:06:17.674Z,5.80
2018-05-21T09:08:45.323Z,5.27
2018-05-21T09:11:12.880Z,6.15
2018-05-21T09:13:40.557Z,6.10
2018-05-21T09:16:08.093Z,5.87
2018-05-21T09:18:35.655Z,6.25
2018-05-21T09:21:03.225Z,5.60
2018-05-21T09:23:30.803Z,6.33
2018-05-21T09:25:58.368Z,5.90
2018-05-21T09:28:25.938Z,6.27
2018-05-21T09:30:53.893Z,5.80
2018-05-21T09:33:21.449Z,6.23
2018-05-21T09:35:49.003Z,5.57
2018-05-21T09:38:16.590Z,5.80
2018-05-21T09:40:44.522Z,5.77
2018-05-21T09:43:12.095Z,6.13
2018-05-21T09:45:39.642Z,5.03
2018-05-21T09:48:07.209Z,5.67
2018-05-21T09:50:35.054Z,5.83
2018-05-21T09:53:02.649Z,5.13
2018-05-21T09:55:30.197Z,5.50
2018-05-21T09:57:57.757Z,6.63
2018-05-21T10:00:25.385Z,5.40
2018-05-21T10:02:52.933Z,5.70
2018-05-21T10:05:20.532Z,5.73
2018-05-21T10:07:48.084Z,5.20
2018-05-21T10:10:15.678Z,5.40
2018-05-21T10:12:43.240Z,5.10
2018-05-21T10:15:11.220Z,5.00
2018-05-21T10:17:39.244Z,4.90
2018-05-21T10:20:06.893Z,5.33
2018-05-21T10:22:34.465Z,5.90
2018-05-21T10:25:02.013Z,5.40
2018-05-21T10:27:29.617Z,4.83
2018-05-21T10:29:58.339Z,5.00
2018-05-21T10:32:26.692Z,4.70
2018-05-21T10:34:54.636Z,5.77
2018-05-21T10:37:22.274Z,5.60
2018-05-21T10:39:49.830Z,5.30
2018-05-21T10:42:17.368Z,4.37
2018-05-21T10:44:44.976Z,4.80
2018-05-21T10:47:12.716Z,5.10
2018-05-21T10:49:40.355Z,4.60
2018-05-21T10:52:07.924Z,4.72
2018-05-21T10:54:35.516Z,5.10
2018-05-21T10:57:03.052Z,4.73
2018-05-21T10:59:30.658Z,5.07
2018-05-21T11:01:58.604Z,5.30
2018-05-21T11:04:26.197Z,4.77
2018-05-21T11:06:54.156Z,5.60
2018-05-21T11:09:22.150Z,4.83
2018-05-21T11:11:49.785Z,4.87
2018-05-21T11:14:17.337Z,4.83
2018-05-21T11:16:44.943Z,5.28
2018-05-21T11:19:12.800Z,4.40
2018-05-21T11:21:41.126Z,4.57
2018-05-21T11:24:13.597Z,4.50
2018-05-21T11:26:41.573Z,4.00
2018-05-21T11:29:09.124Z,4.73
2018-05-21T11:31:36.710Z,4.43
2018-05-21T11:34:04.267Z,4.37
2018-05-21T11:36:31.825Z,4.90
2018-05-21T11:38:59.398Z,4.70
2018-05-21T11:41:27.358Z,4.63
2018-05-21T11:43:54.951Z,4.85
2018-05-21T11:46:22.538Z,4.70
2018-05-21T11:48:50.106Z,4.20
2018-05-21T11:51:17.714Z,4.50
2018-05-21T11:53:45.250Z,4.87
2018-05-21T11:56:12.825Z,4.90
2018-05-21T11:58:40.814Z,5.07
2018-05-21T12:01:09.004Z,4.67
2018-05-21T12:03:36.570Z,5.10
2018-05-21T12:06:04.094Z,4.60
2018-05-21T12:08:32.036Z,4.43
2018-05-21T12:10:59.722Z,4.33
2018-05-21T12:13:27.806Z,4.03
2018-05-21T12:15:56.143Z,3.70
2018-05-21T12:18:23.874Z,3.67
2018-05-21T12:20:51.481Z,3.78
2018-05-21T12:23:19.473Z,4.80
2018-05-21T12:25:47.068Z,4.00
2018-05-21T12:28:15.287Z,4.10
2018-05-21T12:30:42.931Z,4.22
2018-05-21T12:33:10.479Z,3.70
2018-05-21T12:35:40.279Z,3.50
2018-05-21T12:38:07.852Z,3.25
2018-05-21T12:40:35.361Z,3.20
2018-05-21T12:43:02.926Z,3.57
2018-05-21T12:45:30.532Z,4.00
2018-05-21T12:47:58.052Z,3.80
2018-05-21T12:50:26.407Z,3.85
2018-05-21T12:52:54.423Z,3.70
2018-05-21T12:55:22.238Z,4.10
2018-05-21T12:57:50.367Z,3.50
2018-05-21T13:00:17.945Z,3.90
2018-05-21T13:02:45.507Z,3.67
2018-05-21T13:05:13.185Z,3.60
2018-05-21T13:07:40.689Z,3.67
2018-05-21T13:10:08.235Z,3.43
2018-05-21T13:12:35.813Z,3.67
2018-05-21T13:15:03.354Z,3.33
2018-05-21T13:17:30.915Z,3.53
2018-05-21T13:19:58.483Z,3.00
2018-05-21T13:22:26.121Z,3.13
2018-05-21T13:24:54.175Z,3.13
2018-05-21T13:27:21.780Z,3.60
2018-05-21T13:29:49.383Z,4.00
2018-05-21T13:32:17.011Z,3.85
2018-05-21T13:34:44.640Z,3.90
2018-05-21T13:37:12.172Z,3.70
2018-05-21T13:39:39.739Z,3.93
2018-05-21T13:42:07.319Z,3.80
2018-05-21T13:44:34.871Z,3.07
2018-05-21T13:47:02.592Z,3.07
2018-05-21T13:49:30.148Z,3.40
2018-05-21T13:51:57.704Z,3.50
2018-05-21T13:54:25.383Z,3.20
2018-05-21T13:56:52.904Z,3.37
2018-05-21T13:59:20.465Z,3.80
2018-05-21T14:01:48.026Z,3.60
2018-05-21T14:04:15.615Z,3.43
2018-05-21T14:06:43.639Z,4.30
2018-05-21T14:09:11.239Z,3.93
2018-05-21T14:11:38.862Z,4.40
2018-05-21T14:14:06.437Z,4.30
2018-05-21T14:16:34.104Z,4.13
2018-05-21T14:19:02.277Z,3.80
2018-05-21T14:21:29.826Z,4.37
2018-05-21T14:23:57.346Z,4.23
2018-05-21T14:26:25.336Z,4.00
2018-05-21T14:28:53.268Z,4.43
2018-05-21T14:31:20.971Z,4.50
2018-05-21T14:33:48.520Z,4.53
2018-05-21T14:36:16.447Z,4.07
2018-05-21T14:38:44.047Z,4.30
2018-05-21T14:41:12.811Z,3.90
2018-05-21T14:43:40.459Z,3.40
2018-05-21T14:46:08.568Z,4.00
2018-05-21T14:48:36.151Z,4.50
2018-05-21T14:51:05.375Z,4.13
2018-05-21T14:53:32.959Z,4.40
2018-05-21T14:56:00.484Z,3.83
2018-05-21T14:58:28.028Z,4.03
2018-05-21T15:00:55.624Z,4.00
2018-05-21T15:03:23.228Z,4.10
2018-05-21T15:05:51.188Z,4.23
2018-05-21T15:08:19.650Z,4.40
2018-05-21T15:10:47.823Z,4.30
2018-05-21T15:13:15.410Z,4.60
2018-05-21T15:15:42.984Z,4.75
2018-05-21T15:18:10.539Z,5.40
2018-05-21T15:20:38.426Z,4.00
2018-05-21T15:23:07.122Z,4.70
2018-05-21T15:25:36.576Z,4.15
2018-05-21T15:28:04.133Z,4.07
2018-05-21T15:30:31.729Z,4.50
2018-05-21T15:32:59.285Z,4.90
2018-05-21T15:35:26.939Z,4.60
2018-05-21T15:37:54.922Z,4.50
2018-05-21T15:40:22.530Z,4.93
2018-05-21T15:42:50.101Z,4.10
2018-05-21T15:45:17.681Z,5.23
2018-05-21T15:47:45.618Z,4.40
2018-05-21T15:50:13.198Z,4.43
2018-05-21T15:52:41.885Z,4.67
2018-05-21T15:55:09.454Z,4.45
2018-05-21T15:57:37.069Z,4.67
2018-05-21T16:00:04.548Z,4.10
2018-05-21T16:02:32.101Z,4.20
2018-05-21T16:04:59.636Z,4.43
2018-05-21T16:07:27.178Z,4.60
2018-05-21T16:09:54.768Z,4.35
2018-05-21T16:12:22.333Z,4.27
2018-05-21T16:14:49.883Z,4.77
2018-05-21T16:17:17.459Z,4.00
2018-05-21T16:19:44.985Z,4.43
2018-05-21T16:22:12.555Z,4.47
2018-05-21T16:24:40.156Z,4.70
2018-05-21T16:27:07.696Z,4.00
2018-05-21T16:29:35.251Z,4.60
2018-05-21T16:32:02.801Z,4.50
2018-05-21T16:34:30.372Z,4.40
2018-05-21T16:36:57.935Z,4.20
2018-05-21T16:39:25.531Z,4.30
2018-05-21T16:41:53.460Z,4.57
2018-05-21T16:44:21.041Z,4.82
2018-05-21T16:46:48.649Z,5.40
2018-05-21T16:49:17.864Z,4.77
2018-05-21T16:51:45.504Z,5.45
2018-05-21T16:54:13.951Z,4.50
2018-05-21T16:56:41.955Z,5.13
2018-05-21T16:59:09.505Z,4.77
2018-05-21T17:01:37.082Z,5.27
2018-05-21T17:04:04.664Z,4.27
2018-05-21T17:06:32.220Z,4.47
2018-05-21T17:08:59.782Z,5.00
2018-05-21T17:11:27.361Z,4.50
2018-05-21T17:13:54.993Z,4.20
2018-05-21T17:16:22.495Z,4.97
2018-05-21T17:18:50.050Z,4.17
2018-05-21T17:21:17.595Z,4.73
2018-05-21T17:23:45.161Z,5.35
2018-05-21T17:26:13.634Z,4.90
2018-05-21T17:28:41.190Z,5.03
2018-05-21T17:31:08.802Z,4.77
2018-05-21T17:33:36.381Z,4.70
2018-05-21T17:36:03.937Z,5.17
2018-05-21T17:38:31.545Z,4.80
2018-05-21T17:40:59.151Z,5.53
2018-05-21T17:43:26.862Z,5.27
2018-05-21T17:45:54.380Z,4.87
2018-05-21T17:48:21.917Z,4.50
2018-05-21T17:50:49.455Z,4.77
2018-05-21T17:53:17.431Z,4.85
2018-05-21T17:55:45.416Z,5.07
2018-05-21T17:58:12.988Z,4.83
2018-05-21T18:00:40.523Z,4.67
2018-05-21T18:03:08.535Z,4.43
2018-05-21T18:05:36.485Z,5.07
2018-05-21T18:08:04.040Z,4.83
2018-05-21T18:10:31.593Z,5.05
2018-05-21T18:12:59.197Z,4.70
2018-05-21T18:15:26.772Z,4.40
2018-05-21T18:17:54.402Z,4.50
2018-05-21T18:20:21.953Z,4.87
2018-05-21T18:22:49.538Z,4.50
2018-05-21T18:25:17.069Z,5.15
2018-05-21T18:27:44.610Z,4.63
2018-05-21T18:30:12.233Z,4.83
2018-05-21T18:32:39.768Z,4.80
2018-05-21T18:35:07.376Z,4.80
2018-05-21T18:37:34.920Z,5.07
2018-05-21T18:40:02.817Z,5.13
2018-05-21T18:42:30.761Z,5.30
2018-05-21T18:44:58.351Z,4.50
2018-05-21T18:47:25.932Z,5.10
2018-05-21T18:49:53.483Z,5.00
2018-05-21T18:52:21.030Z,5.10
2018-05-21T18:54:48.590Z,5.13
2018-05-21T18:57:16.134Z,4.83
2018-05-21T18:59:44.107Z,4.93
2018-05-21T19:02:12.082Z,5.03
2018-05-21T19:04:40.055Z,4.60
2018-05-21T19:07:07.645Z,5.67
2018-05-21T19:09:35.195Z,4.90
2018-05-21T19:12:02.801Z,4.07
2018-05-21T19:14:30.356Z,4.70
2018-05-21T19:16:57.988Z,4.40
2018-05-21T19:19:25.575Z,4.53
2018-05-21T19:21:53.143Z,4.97
2018-05-21T19:24:20.700Z,4.87
2018-05-21T19:26:49.555Z,4.90
2018-05-21T19:29:18.053Z,5.30
2018-05-21T19:31:45.665Z,5.00
2018-05-21T19:34:13.220Z,4.53
2018-05-21T20:01:56.616Z,5.35
2018-05-21T20:04:24.709Z,4.20
2018-05-21T20:06:52.444Z,5.00
2018-05-21T20:09:20.581Z,4.80
2018-05-21T20:11:48.244Z,5.10
2018-05-21T20:14:16.017Z,4.67
2018-05-21T20:16:43.712Z,4.80
2018-05-21T20:19:12.835Z,4.68
2018-05-21T20:21:40.362Z,4.47
2018-05-21T20:24:08.477Z,4.97
2018-05-21T20:26:36.408Z,4.73
2018-05-21T20:29:04.056Z,4.90
2018-05-21T20:31:31.778Z,4.97
2018-05-21T20:33:59.366Z,5.40
2018-05-21T20:36:26.957Z,4.70
2018-05-21T20:38:54.969Z,4.40
2018-05-21T20:41:22.600Z,4.60
2018-05-21T20:43:50.270Z,4.63
2018-05-21T20:46:17.898Z,4.27
2018-05-21T20:48:45.707Z,4.47
2018-05-21T20:51:13.351Z,5.67
2018-05-21T20:53:41.391Z,5.00
2018-05-21T20:56:08.976Z,5.30
2018-05-21T20:58:37.177Z,5.70
2018-05-21T21:01:04.885Z,5.50
2018-05-21T21:03:32.539Z,5.23
2018-05-21T21:06:00.447Z,5.37
2018-05-21T21:08:28.124Z,5.17
2018-05-21T21:10:55.872Z,4.90
2018-05-21T21:13:23.636Z,4.60
2018-05-21T21:15:51.683Z,4.90
2018-05-21T21:18:19.364Z,4.87
2018-05-21T21:20:47.419Z,5.33
2018-05-21T21:23:15.419Z,4.47
2018-05-21T21:25:43.089Z,5.30
2018-05-21T21:28:10.731Z,4.90
2018-05-21T21:30:38.754Z,4.67
2018-05-21T21:33:06.375Z,4.80
2018-05-21T21:35:37.265Z,4.83
2018-05-21T21:38:05.560Z,5.50
2018-05-21T21:40:33.192Z,4.97
2018-05-21T21:43:03.416Z,4.60
2018-05-21T21:45:31.065Z,4.90
2018-05-21T21:47:58.843Z,5.20
2018-05-21T21:50:26.587Z,4.70
2018-05-21T21:52:54.269Z,3.97
2018-05-21T21:55:21.856Z,4.23
2018-05-21T21:57:49.868Z,4.20
2018-05-21T22:00:17.537Z,4.13
2018-05-21T22:02:46.407Z,4.30
2018-05-21T22:05:14.025Z,4.50
2018-05-21T22:07:41.614Z,3.77
2018-05-21T22:10:10.002Z,4.87
2018-05-21T22:12:37.608Z,4.53
2018-05-21T22:15:05.174Z,4.27
2018-05-21T22:17:32.865Z,3.53
2018-05-21T22:20:00.474Z,3.90
2018-05-21T22:22:28.134Z,4.13
2018-05-21T22:24:55.750Z,3.87
2018-05-21T22:27:23.757Z,4.10
2018-05-21T22:29:51.371Z,4.10
2018-05-21T22:32:19.012Z,4.27
2018-05-21T22:34:46.675Z,3.87
2018-05-21T22:37:14.282Z,4.13
2018-05-21T22:39:42.313Z,4.47
2018-05-21T22:42:09.862Z,4.37
2018-05-21T22:44:42.275Z,4.40
2018-05-21T22:47:10.225Z,4.10
2018-05-21T22:49:37.884Z,4.00
2018-05-21T22:52:05.553Z,3.97
2018-05-21T22:54:35.132Z,4.13
2018-05-21T22:57:03.649Z,3.90
2018-05-21T22:59:31.740Z,4.10
2018-05-21T23:02:00.535Z,4.03
2018-05-21T23:04:28.309Z,4.10
2018-05-21T23:06:55.959Z,3.40
2018-05-21T23:09:23.584Z,4.10
2018-05-21T23:11:51.199Z,4.00
2018-05-21T23:14:18.849Z,3.90
2018-05-21T23:16:46.527Z,4.33
2018-05-21T23:19:14.135Z,3.70
2018-05-21T23:21:41.787Z,4.30
2018-05-21T23:24:09.400Z,4.37
2018-05-21T23:26:37.497Z,4.10
2018-05-21T23:29:05.115Z,4.40
2018-05-21T23:31:32.837Z,4.30
2018-05-21T23:34:00.465Z,4.93
2018-05-21T23:36:28.102Z,4.20
2018-05-21T23:38:56.153Z,4.10
2018-05-21T23:41:24.193Z,4.53
2018-05-21T23:43:51.875Z,4.03
2018-05-21T23:46:19.583Z,5.00
2018-05-21T23:48:47.244Z,3.83
2018-05-21T23:51:14.837Z,4.43
2018-05-21T23:53:42.516Z,4.37
2018-05-21T23:56:10.194Z,4.73
2018-05-21T23:58:38.267Z,4.12
